createdAt,value
2018-11-02T00:01:06.545Z,92.90
2018-11-02T00:03:34.139Z,93.10
2018-11-02T00:06:02.524Z,92.70
2018-11-02T00:08:30.024Z,92.60
2018-11-02T00:10:57.608Z,92.70
2018-11-02T00:13:25.163Z,92.70
2018-11-02T00:15:53.729Z,92.80
2018-11-02T00:18:21.599Z,93.00
2018-11-02T00:20:49.162Z,93.10
2018-11-02T00:23:16.745Z,92.90
2018-11-02T00:25:44.292Z,92.80
2018-11-02T00:28:11.849Z,92.90
2018-11-02T00:30:39.440Z,93.10
2018-11-02T00:33:07.003Z,93.20
2018-11-02T00:35:34.544Z,93.20
2018-11-02T00:38:02.609Z,93.30
2018-11-02T00:40:30.167Z,93.40
2018-11-02T00:42:57.731Z,93.70
2018-11-02T00:45:25.311Z,93.40
2018-11-02T00:47:52.869Z,93.30
2018-11-02T00:50:20.449Z,92.70
2018-11-02T00:52:48.784Z,92.80
2018-11-02T00:55:17.543Z,92.60
2018-11-02T00:57:45.108Z,92.40
2018-11-02T01:00:12.660Z,92.50
2018-11-02T01:02:40.252Z,92.90
2018-11-02T01:05:07.782Z,92.70
2018-11-02T01:07:35.725Z,92.80
2018-11-02T01:10:03.245Z,93.00
2018-11-02T01:12:30.811Z,93.20
2018-11-02T01:14:58.395Z,93.50
2018-11-02T01:17:25.960Z,93.70
2018-11-02T01:19:53.646Z,94.00
2018-11-02T01:22:21.135Z,94.10
2018-11-02T01:24:48.698Z,94.50
2018-11-02T01:27:16.284Z,94.20
2018-11-02T01:29:43.847Z,94.20
2018-11-02T01:32:11.406Z,94.10
2018-11-02T01:34:39.014Z,94.10
2018-11-02T01:37:07.649Z,94.00
2018-11-02T01:39:35.206Z,94.00
2018-11-02T01:42:02.793Z,94.00
2018-11-02T01:44:30.349Z,94.10
2018-11-02T01:46:57.914Z,94.10
2018-11-02T01:49:26.280Z,94.20
2018-11-02T01:51:53.831Z,94.20
2018-11-02T01:54:21.388Z,94.10
2018-11-02T01:56:48.978Z,93.80
2018-11-02T01:59:16.543Z,93.70
2018-11-02T02:01:44.107Z,93.60
2018-11-02T02:04:11.683Z,93.70
2018-11-02T02:06:40.020Z,93.60
2018-11-02T02:09:07.570Z,93.60
2018-11-02T02:11:35.187Z,93.50
2018-11-02T02:14:03.503Z,93.70
2018-11-02T02:16:31.061Z,93.70
2018-11-02T02:18:58.646Z,93.70
2018-11-02T02:21:26.208Z,93.70
2018-11-02T02:23:54.084Z,93.70
2018-11-02T02:26:22.046Z,93.60
2018-11-02T02:28:49.606Z,93.50
2018-11-02T02:31:17.175Z,93.50
2018-11-02T02:33:44.789Z,93.50
2018-11-02T02:36:12.340Z,93.50
2018-11-02T02:38:39.896Z,93.50
2018-11-02T02:41:07.589Z,93.50
2018-11-02T02:43:35.157Z,93.60
2018-11-02T02:46:02.701Z,93.60
2018-11-02T02:48:30.352Z,93.60
2018-11-02T02:50:57.912Z,93.60
2018-11-02T02:53:26.290Z,93.70
2018-11-02T02:55:53.851Z,93.70
2018-11-02T02:58:22.177Z,93.60
2018-11-02T03:00:49.776Z,93.60
2018-11-02T03:03:17.339Z,93.60
2018-11-02T03:05:44.895Z,93.60
2018-11-02T03:08:12.487Z,93.60
2018-11-02T03:10:40.850Z,93.60
2018-11-02T03:13:08.412Z,93.60
2018-11-02T03:15:35.974Z,93.60
2018-11-02T03:18:04.290Z,94.00
2018-11-02T03:20:31.890Z,93.70
2018-11-02T03:22:59.445Z,93.60
2018-11-02T03:25:27.025Z,93.70
2018-11-02T03:27:54.595Z,93.70
2018-11-02T03:30:22.925Z,93.40
2018-11-02T03:32:51.122Z,93.70
2018-11-02T03:35:18.687Z,93.60
2018-11-02T03:37:46.249Z,93.60
2018-11-02T03:40:13.833Z,93.70
2018-11-02T03:42:42.158Z,93.20
2018-11-02T03:45:09.753Z,93.20
2018-11-02T03:47:37.310Z,92.90
2018-11-02T03:50:05.444Z,92.90
2018-11-02T03:52:33.033Z,92.90
2018-11-02T03:55:00.600Z,93.00
2018-11-02T03:57:28.209Z,93.00
2018-11-02T03:59:56.550Z,93.10
2018-11-02T04:02:24.101Z,93.10
2018-11-02T04:04:51.960Z,93.20
2018-11-02T04:07:19.517Z,93.20
2018-11-02T04:09:47.132Z,93.20
2018-11-02T04:12:14.673Z,93.30
2018-11-02T04:14:42.512Z,93.30
2018-11-02T04:17:10.115Z,93.40
2018-11-02T04:19:38.449Z,93.40
2018-11-02T04:22:06.002Z,93.20
2018-11-02T04:24:33.584Z,93.20
2018-11-02T04:27:01.147Z,93.20
2018-11-02T04:29:28.748Z,93.20
2018-11-02T04:31:57.067Z,93.40
2018-11-02T04:34:24.624Z,93.40
2018-11-02T04:36:52.711Z,93.40
2018-11-02T04:39:20.280Z,93.40
2018-11-02T04:41:47.874Z,93.50
2018-11-02T04:44:15.452Z,93.60
2018-11-02T04:46:43.804Z,93.40
2018-11-02T04:49:11.363Z,93.40
2018-11-02T04:51:38.915Z,93.00
2018-11-02T04:54:06.497Z,93.00
2018-11-02T04:56:34.065Z,93.00
2018-11-02T04:59:02.403Z,93.40
2018-11-02T05:01:30.029Z,93.40
2018-11-02T05:03:57.582Z,93.50
2018-11-02T05:06:25.193Z,93.60
2018-11-02T05:08:52.736Z,93.70
2018-11-02T05:11:20.350Z,93.60
2018-11-02T05:13:47.890Z,93.50
2018-11-02T05:16:15.734Z,93.50
2018-11-02T05:18:43.301Z,93.50
2018-11-02T05:21:10.961Z,93.60
2018-11-02T05:23:38.446Z,93.70
2018-11-02T05:26:06.394Z,94.10
2018-11-02T05:28:33.958Z,93.80
2018-11-02T05:31:01.530Z,93.80
2018-11-02T05:33:29.107Z,93.70
2018-11-02T05:35:56.658Z,93.70
2018-11-02T05:38:24.218Z,93.70
2018-11-02T05:40:51.801Z,93.70
2018-11-02T05:43:20.130Z,93.70
2018-11-02T05:45:47.750Z,93.70
2018-11-02T05:48:16.073Z,93.70
2018-11-02T05:50:43.634Z,93.70
2018-11-02T05:53:11.234Z,93.70
2018-11-02T05:55:38.795Z,93.70
2018-11-02T05:58:06.380Z,93.60
2018-11-02T06:00:34.712Z,93.50
2018-11-02T06:03:02.277Z,93.20
2018-11-02T06:05:29.860Z,93.10
2018-11-02T06:07:57.509Z,93.10
2018-11-02T06:10:26.277Z,93.10
2018-11-02T06:12:53.840Z,93.10
2018-11-02T06:15:21.402Z,93.10
2018-11-02T06:17:49.063Z,93.10
2018-11-02T06:20:16.551Z,93.20
2018-11-02T06:22:44.142Z,93.20
2018-11-02T06:25:12.467Z,92.90
2018-11-02T06:27:40.050Z,92.90
2018-11-02T06:30:07.618Z,92.80
2018-11-02T06:32:35.277Z,92.80
2018-11-02T06:35:02.832Z,92.40
2018-11-02T06:37:30.398Z,92.20
2018-11-02T06:39:57.988Z,92.40
2018-11-02T06:42:26.309Z,92.70
2018-11-02T06:44:55.003Z,92.70
2018-11-02T06:47:22.464Z,92.70
2018-11-02T06:49:50.029Z,92.90
2018-11-02T06:52:17.616Z,93.10
2018-11-02T06:54:45.175Z,93.10
2018-11-02T06:57:12.787Z,93.20
2018-11-02T06:59:40.548Z,93.30
2018-11-02T07:02:07.933Z,93.50
2018-11-02T07:04:35.529Z,93.60
2018-11-02T07:07:03.921Z,94.20
2018-11-02T07:09:31.433Z,93.80
2018-11-02T07:11:59.162Z,93.80
2018-11-02T07:14:27.065Z,93.90
2018-11-02T07:16:55.450Z,93.90
2018-11-02T07:19:23.018Z,93.90
2018-11-02T07:21:50.580Z,93.90
2018-11-02T07:24:18.178Z,94.00
2018-11-02T07:26:46.512Z,94.00
2018-11-02T07:29:14.380Z,94.00
2018-11-02T07:31:41.965Z,94.00
2018-11-02T07:34:09.942Z,94.00
2018-11-02T07:36:38.083Z,94.00
2018-11-02T07:39:05.644Z,94.00
2018-11-02T07:41:33.211Z,94.00
2018-11-02T07:44:12.073Z,94.00
2018-11-02T07:46:39.625Z,94.00
2018-11-02T07:49:07.198Z,93.70
2018-11-02T07:51:35.578Z,93.30
2018-11-02T07:54:03.136Z,93.30
2018-11-02T07:56:31.466Z,93.60
2018-11-02T07:59:00.269Z,93.40
2018-11-02T08:01:27.838Z,93.50
2018-11-02T08:03:55.408Z,93.60
2018-11-02T08:06:23.003Z,93.70
2018-11-02T08:08:51.367Z,93.80
2018-11-02T08:11:19.982Z,93.80
2018-11-02T08:13:47.490Z,93.50
2018-11-02T08:16:15.059Z,93.40
2018-11-02T08:18:42.667Z,93.10
2018-11-02T08:21:10.983Z,92.80
2018-11-02T08:23:38.633Z,92.80
2018-11-02T08:26:06.215Z,93.20
2018-11-02T08:28:33.769Z,93.10
2018-11-02T08:31:02.303Z,93.00
2018-11-02T08:33:29.865Z,92.40
2018-11-02T08:35:57.431Z,92.10
2018-11-02T08:38:25.053Z,91.80
2018-11-02T08:40:52.610Z,91.80
2018-11-02T08:43:20.189Z,92.00
2018-11-02T08:45:48.570Z,91.90
2018-11-02T08:48:16.903Z,92.20
2018-11-02T08:50:44.455Z,92.10
2018-11-02T08:53:12.100Z,91.90
2018-11-02T08:55:39.694Z,91.80
2018-11-02T08:58:07.450Z,91.90
2018-11-02T09:00:35.534Z,92.00
2018-11-02T09:03:03.098Z,91.80
2018-11-02T09:05:30.657Z,91.80
2018-11-02T09:07:58.272Z,91.50
2018-11-02T09:10:25.833Z,91.30
2018-11-02T09:12:54.154Z,91.60
2018-11-02T09:15:22.137Z,91.50
2018-11-02T09:17:49.696Z,91.60
2018-11-02T09:20:17.260Z,91.50
2018-11-02T09:22:45.221Z,91.50
2018-11-02T09:25:12.778Z,91.50
2018-11-02T09:27:40.337Z,91.50
2018-11-02T09:30:08.428Z,91.80
2018-11-02T09:32:35.997Z,91.80
2018-11-02T09:35:03.563Z,91.90
2018-11-02T09:37:31.209Z,91.80
2018-11-02T09:39:59.071Z,91.10
2018-11-02T09:42:27.142Z,90.60
2018-11-02T09:44:54.654Z,90.50
2018-11-02T09:47:22.213Z,90.40
2018-11-02T09:49:50.550Z,90.40
2018-11-02T09:52:18.199Z,90.40
2018-11-02T09:54:46.516Z,90.60
2018-11-02T09:57:14.052Z,90.50
2018-11-02T09:59:41.658Z,90.70
2018-11-02T10:02:10.049Z,91.10
2018-11-02T10:04:38.167Z,91.10
2018-11-02T10:07:06.762Z,91.10
2018-11-02T10:09:34.324Z,91.20
2018-11-02T10:12:01.901Z,90.90
2018-11-02T10:14:30.020Z,90.40
2018-11-02T10:16:57.588Z,90.20
2018-11-02T10:19:25.135Z,90.10
2018-11-02T10:21:52.719Z,90.00
2018-11-02T10:24:20.272Z,90.00
2018-11-02T10:26:49.082Z,90.20
2018-11-02T10:29:16.647Z,90.40
2018-11-02T10:31:44.421Z,90.50
2018-11-02T10:34:12.028Z,90.40
2018-11-02T10:36:40.352Z,90.40
2018-11-02T10:39:07.907Z,90.40
2018-11-02T10:41:35.532Z,90.50
2018-11-02T10:44:03.095Z,90.40
2018-11-02T10:46:30.651Z,90.30
2018-11-02T10:48:58.233Z,90.30
2018-11-02T10:51:25.784Z,90.50
2018-11-02T10:53:53.339Z,90.70
2018-11-02T10:56:22.825Z,91.00
2018-11-02T10:58:50.334Z,91.00
2018-11-02T11:01:17.936Z,91.00
2018-11-02T11:03:46.891Z,90.90
2018-11-02T11:06:14.445Z,90.70
2018-11-02T11:08:41.998Z,90.50
2018-11-02T11:11:10.708Z,90.20
2018-11-02T11:13:38.694Z,90.30
2018-11-02T11:16:05.845Z,90.10
2018-11-02T11:18:33.455Z,89.90
2018-11-02T11:21:01.065Z,89.20
2018-11-02T11:23:29.324Z,87.00
2018-11-02T11:25:56.932Z,87.00
2018-11-02T11:28:25.257Z,87.40
2018-11-02T11:30:52.828Z,86.90
2018-11-02T11:33:20.477Z,87.80
2018-11-02T11:35:48.043Z,88.50
2018-11-02T11:38:15.602Z,89.20
2018-11-02T11:40:43.213Z,90.00
2018-11-02T11:43:10.768Z,90.30
2018-11-02T11:45:38.337Z,90.40
2018-11-02T11:48:05.957Z,90.90
2018-11-02T11:50:33.522Z,90.70
2018-11-02T11:53:01.093Z,90.80
2018-11-02T11:55:28.686Z,90.90
2018-11-02T11:57:56.248Z,91.00
2018-11-02T12:00:23.815Z,91.00
2018-11-02T12:02:52.675Z,91.20
2018-11-02T12:05:20.251Z,91.20
2018-11-02T12:07:47.808Z,91.30
2018-11-02T12:10:15.451Z,91.40
2018-11-02T12:12:42.999Z,90.90
2018-11-02T12:15:10.565Z,90.40
2018-11-02T12:17:38.755Z,90.80
2018-11-02T12:20:06.323Z,90.50
2018-11-02T12:22:33.887Z,90.70
2018-11-02T12:25:01.725Z,91.20
2018-11-02T12:27:29.298Z,91.00
2018-11-02T12:29:56.867Z,90.70
2018-11-02T12:32:24.474Z,90.80
2018-11-02T12:34:52.803Z,90.70
2018-11-02T12:37:20.357Z,90.70
2018-11-02T12:39:47.973Z,90.50
2018-11-02T12:42:16.302Z,90.70
2018-11-02T12:44:43.865Z,90.70
2018-11-02T12:47:11.451Z,91.00
2018-11-02T12:49:39.328Z,91.00
2018-11-02T12:52:06.636Z,90.80
2018-11-02T12:54:34.194Z,90.40
2018-11-02T12:57:01.757Z,90.10
2018-11-02T12:59:29.372Z,90.00
2018-11-02T13:01:56.938Z,90.10
2018-11-02T13:04:24.488Z,90.00
2018-11-02T13:06:52.102Z,89.60
2018-11-02T13:11:47.225Z,89.40
2018-11-02T13:14:15.632Z,89.40
2018-11-02T13:16:43.199Z,89.30
2018-11-02T13:19:10.767Z,89.50
2018-11-02T13:21:38.425Z,90.10
2018-11-02T13:24:06.685Z,89.80
2018-11-02T13:26:34.987Z,89.80
2018-11-02T13:29:02.536Z,90.10
2018-11-02T13:31:30.192Z,90.10
2018-11-02T13:33:57.704Z,90.20
2018-11-02T13:36:26.113Z,90.40
2018-11-02T13:38:53.604Z,90.40
2018-11-02T13:41:21.245Z,90.50
2018-11-02T13:43:48.933Z,90.50
2018-11-02T13:46:16.375Z,90.30
2018-11-02T13:48:44.013Z,90.40
2018-11-02T13:51:11.569Z,90.40
2018-11-02T13:53:39.185Z,90.60
2018-11-02T13:56:06.741Z,90.70
2018-11-02T13:58:34.310Z,90.90
2018-11-02T14:01:01.873Z,91.00
2018-11-02T14:03:30.427Z,91.10
2018-11-02T14:05:57.987Z,91.10
2018-11-02T14:08:25.552Z,91.00
2018-11-02T14:10:53.166Z,90.90
2018-11-02T14:13:21.500Z,90.60
2018-11-02T14:15:49.066Z,90.60
2018-11-02T14:18:16.691Z,90.60
2018-11-02T14:20:44.236Z,90.60
2018-11-02T14:23:11.805Z,90.60
2018-11-02T14:25:39.452Z,90.80
2018-11-02T14:28:07.015Z,90.80
2018-11-02T14:30:35.347Z,90.70
2018-11-02T14:33:02.948Z,90.70
2018-11-02T14:35:31.284Z,91.20
2018-11-02T14:37:58.846Z,91.20
2018-11-02T14:40:26.483Z,90.90
2018-11-02T14:42:54.058Z,90.80
2018-11-02T14:45:21.631Z,90.80
2018-11-02T14:47:49.243Z,90.80
2018-11-02T14:50:16.818Z,90.50
2018-11-02T14:52:44.393Z,90.20
2018-11-02T14:55:11.985Z,89.80
2018-11-02T14:57:39.549Z,89.80
2018-11-02T15:00:07.166Z,89.30
2018-11-02T15:02:34.727Z,87.90
2018-11-02T15:05:02.288Z,87.50
2018-11-02T15:07:30.807Z,87.80
2018-11-02T15:09:58.366Z,88.00
2018-11-02T15:12:25.927Z,87.90
2018-11-02T15:14:53.564Z,88.00
2018-11-02T15:17:21.126Z,88.30
2018-11-02T15:19:48.686Z,88.40
2018-11-02T15:22:16.278Z,87.80
2018-11-02T15:24:43.840Z,87.90
2018-11-02T15:27:11.445Z,88.10
2018-11-02T15:29:39.782Z,88.70
2018-11-02T15:32:07.351Z,88.70
2018-11-02T15:34:35.024Z,88.80
2018-11-02T15:37:02.550Z,89.10
2018-11-02T15:39:30.112Z,89.70
2018-11-02T15:41:58.327Z,89.40
2018-11-02T15:44:25.953Z,89.40
2018-11-02T15:46:53.445Z,89.50
2018-11-02T15:49:21.062Z,89.60
2018-11-02T15:51:48.946Z,89.90
2018-11-02T15:54:16.502Z,89.80
2018-11-02T15:56:44.088Z,90.00
2018-11-02T15:59:11.657Z,89.80
2018-11-02T16:01:39.262Z,89.70
2018-11-02T16:04:06.827Z,89.70
2018-11-02T16:06:34.395Z,89.60
2018-11-02T16:09:02.001Z,89.60
2018-11-02T16:11:29.568Z,89.60
2018-11-02T16:13:57.140Z,89.80
2018-11-02T16:16:25.988Z,90.00
2018-11-02T16:18:53.549Z,90.00
2018-11-02T16:21:21.122Z,90.00
2018-11-02T16:23:48.719Z,90.00
2018-11-02T16:26:17.091Z,90.20
2018-11-02T16:28:45.229Z,89.90
2018-11-02T16:31:12.786Z,89.80
2018-11-02T16:33:40.356Z,89.80
2018-11-02T16:36:08.779Z,90.00
2018-11-02T16:38:37.111Z,90.10
2018-11-02T16:41:04.689Z,90.00
2018-11-02T16:43:32.303Z,90.10
2018-11-02T16:46:00.613Z,90.30
2018-11-02T16:48:28.950Z,90.30
2018-11-02T16:50:57.277Z,90.00
2018-11-02T16:53:24.846Z,90.00
2018-11-02T16:55:52.910Z,90.00
2018-11-02T16:58:20.494Z,90.00
2018-11-02T17:00:48.038Z,89.90
2018-11-02T17:03:15.613Z,89.90
2018-11-02T17:05:43.229Z,90.00
2018-11-02T17:08:10.994Z,90.00
2018-11-02T17:10:39.301Z,90.00
2018-11-02T17:13:06.868Z,90.00
2018-11-02T17:15:35.452Z,90.10
2018-11-02T17:18:03.045Z,90.20
2018-11-02T17:20:30.578Z,90.20
2018-11-02T17:22:58.166Z,90.30
2018-11-02T17:25:25.720Z,90.30
2018-11-02T17:27:53.871Z,90.00
2018-11-02T17:30:21.731Z,89.60
2018-11-02T17:32:49.290Z,89.60
2018-11-02T17:35:16.922Z,89.90
2018-11-02T17:37:45.230Z,90.30
2018-11-02T17:40:12.887Z,90.30
2018-11-02T17:42:40.493Z,90.20
2018-11-02T17:45:08.047Z,90.30
2018-11-02T17:47:35.640Z,90.30
2018-11-02T17:50:03.214Z,90.30
2018-11-02T17:52:30.789Z,90.30
2018-11-02T17:54:58.340Z,90.10
2018-11-02T17:57:26.413Z,89.20
2018-11-02T17:59:53.980Z,88.90
2018-11-02T18:02:21.535Z,89.20
2018-11-02T18:04:49.425Z,89.40
2018-11-02T18:07:16.981Z,89.70
2018-11-02T18:09:44.539Z,89.80
2018-11-02T18:12:12.206Z,90.00
2018-11-02T18:14:39.826Z,90.20
2018-11-02T18:17:08.049Z,90.60
2018-11-02T18:19:35.668Z,90.60
2018-11-02T18:22:03.621Z,90.60
2018-11-02T18:24:31.265Z,91.00
2018-11-02T18:26:59.220Z,91.20
2018-11-02T18:29:26.788Z,91.30
2018-11-02T18:31:54.352Z,91.30
2018-11-02T18:34:21.944Z,91.30
2018-11-02T18:36:50.279Z,91.90
2018-11-02T18:39:17.885Z,91.50
2018-11-02T18:41:45.446Z,91.60
2018-11-02T18:44:13.769Z,92.00
2018-11-02T18:46:41.369Z,91.70
2018-11-02T18:49:08.930Z,91.70
2018-11-02T18:51:36.502Z,91.70
2018-11-02T18:54:04.088Z,91.60
2018-11-02T18:56:31.651Z,91.20
2018-11-02T18:59:00.490Z,90.70
2018-11-02T19:01:28.049Z,90.60
2018-11-02T19:03:55.615Z,90.70
2018-11-02T19:06:23.381Z,91.00
2018-11-02T19:08:50.925Z,91.20
2018-11-02T19:11:18.505Z,91.60
2018-11-02T19:13:46.149Z,91.40
2018-11-02T19:16:13.718Z,91.50
2018-11-02T19:18:41.280Z,91.60
2018-11-02T19:21:09.288Z,91.80
2018-11-02T19:23:36.823Z,92.00
2018-11-02T19:26:04.384Z,92.20
2018-11-02T19:28:31.996Z,92.30
2018-11-02T19:30:59.557Z,92.00
2018-11-02T19:33:27.373Z,91.80
2018-11-02T19:35:55.061Z,91.50
2018-11-02T19:38:22.558Z,91.70
2018-11-02T19:40:50.113Z,91.90
2018-11-02T19:43:17.803Z,92.10
2018-11-02T19:45:45.396Z,92.20
2018-11-02T19:48:12.923Z,92.40
2018-11-02T19:50:40.717Z,92.40
2018-11-02T19:53:08.153Z,92.70
2018-11-02T19:55:35.720Z,92.70
2018-11-02T19:58:03.325Z,93.00
2018-11-02T20:00:31.687Z,92.60
2018-11-02T20:02:59.256Z,92.60
2018-11-02T20:05:27.189Z,92.60
2018-11-02T20:07:54.755Z,92.80
2018-11-02T20:10:22.315Z,92.30
2018-11-02T20:12:49.902Z,92.30
2018-11-02T20:15:18.048Z,92.40
2018-11-02T20:17:45.735Z,92.40
2018-11-02T20:20:13.233Z,92.60
2018-11-02T20:22:40.800Z,92.30
2018-11-02T20:25:09.319Z,92.40
2018-11-02T20:27:36.892Z,92.60
2018-11-02T20:30:04.456Z,92.60
2018-11-02T20:32:32.211Z,92.60
2018-11-02T20:34:59.637Z,92.60
2018-11-02T20:37:27.199Z,92.50
2018-11-02T20:39:55.201Z,92.50
2018-11-02T20:42:22.762Z,92.80
2018-11-02T20:44:50.327Z,92.90
2018-11-02T20:47:17.932Z,93.00
2018-11-02T20:49:46.274Z,92.90
2018-11-02T20:52:13.834Z,92.90
2018-11-02T20:54:41.558Z,92.90
2018-11-02T20:57:09.119Z,92.90
2018-11-02T20:59:36.678Z,92.70
2018-11-02T21:02:05.198Z,92.80
2018-11-02T21:04:32.750Z,92.80
2018-11-02T21:07:00.318Z,92.90
2018-11-02T21:09:28.116Z,93.10
2018-11-02T21:11:55.499Z,93.30
2018-11-02T21:14:23.121Z,93.40
2018-11-02T21:16:50.706Z,93.60
2018-11-02T21:19:18.228Z,93.70
2018-11-02T21:21:46.617Z,93.70
2018-11-02T21:24:14.171Z,93.70
2018-11-02T21:26:41.741Z,93.70
2018-11-02T21:29:09.322Z,93.70
2018-11-02T21:31:36.879Z,93.80
2018-11-02T21:34:04.531Z,93.90
2018-11-02T21:36:32.059Z,93.60
2018-11-02T21:38:59.614Z,93.60
2018-11-02T21:41:27.263Z,93.60
2018-11-02T21:43:54.811Z,93.60
2018-11-02T21:46:22.371Z,93.60
2018-11-02T21:48:49.960Z,93.50
2018-11-02T21:51:17.524Z,93.50
2018-11-02T21:53:45.097Z,93.50
2018-11-02T21:56:12.697Z,93.70
2018-11-02T21:58:40.282Z,93.80
2018-11-02T22:01:07.825Z,93.10
2018-11-02T22:03:35.410Z,92.80
2018-11-02T22:06:03.046Z,93.00
2018-11-02T22:08:30.593Z,93.10
2018-11-02T22:10:58.164Z,93.00
2018-11-02T22:13:25.725Z,93.00
2018-11-02T22:15:53.336Z,93.10
2018-11-02T22:18:20.893Z,93.00
2018-11-02T22:20:48.456Z,93.10
2018-11-02T22:23:16.056Z,93.20
2018-11-02T22:25:43.622Z,93.20
2018-11-02T22:28:11.185Z,93.10
2018-11-02T22:30:38.805Z,93.20
2018-11-02T22:33:07.107Z,93.30
2018-11-02T22:35:34.667Z,93.30
2018-11-02T22:38:02.330Z,93.30
2018-11-02T22:40:29.851Z,93.10
2018-11-02T22:42:57.412Z,92.60
2018-11-02T22:45:25.008Z,92.30
2018-11-02T22:47:52.563Z,92.30
2018-11-02T22:50:20.197Z,92.30
2018-11-02T22:52:47.780Z,92.40
2018-11-02T22:55:15.346Z,92.60
2018-11-02T22:57:42.940Z,92.70
2018-11-02T23:00:10.507Z,92.70
2018-11-02T23:02:38.066Z,92.70
2018-11-02T23:05:05.671Z,92.70
2018-11-02T23:07:33.247Z,92.90
2018-11-02T23:10:00.823Z,92.90
2018-11-02T23:12:28.445Z,93.00
2018-11-02T23:14:56.007Z,93.10
2018-11-02T23:17:23.570Z,93.40
2018-11-02T23:19:51.161Z,93.10
2018-11-02T23:22:19.342Z,92.90
2018-11-02T23:24:46.909Z,92.50
2018-11-02T23:27:14.473Z,92.70
2018-11-02T23:29:42.154Z,92.80
2018-11-02T23:32:09.635Z,92.50
2018-11-02T23:34:37.964Z,92.40
2018-11-02T23:37:05.547Z,92.40
2018-11-02T23:39:33.165Z,92.50
2018-11-02T23:42:00.726Z,92.60
2018-11-02T23:44:28.286Z,92.80
2018-11-02T23:46:55.883Z,92.90
2018-11-02T23:49:23.453Z,92.80
2018-11-02T23:51:51.021Z,92.80
2018-11-02T23:54:18.617Z,92.90
2018-11-02T23:56:46.187Z,93.00
2018-11-02T23:59:13.754Z,93.20
